Cfl Racer — PJMV — position and weather

sailwx.info

Track history (hours):
 
Tides and Currents Weather Stations Pressure Air Temp Water Temp Dewpoint Dewpoint Depression Visibility Wind Speed Wind Dir Waves Ship Positions

Cfl Racer

Last reported at 2014-Sep-30 08:24 UTC. Time now 2014-Sep-30 13:52 UTC.
Position N 53°60' E 007°29'.

Length 83 m; draft 4.6 m.

Type: Cargo ship. MMSI: 306762000.

Date/timePositionNaut miles runAvg speedWind from/ knotsBaromVisibWave heightAir tempDewpointWater temp
2014-Sep-30 08:24N 53°60' E 007°29'911.2
2014-Sep-30 07:33N 54°01' E 007°45'1211.7
2014-Sep-30 06:33N 54°01' E 008°05'1312.7
2014-Sep-30 05:34N 53°59' E 008°26'1111.3
2014-Sep-30 04:34N 53°53' E 008°42'9 8.8
2014-Sep-30 03:33N 53°51' E 008°57'26 6.2
2014-Sep-29 23:26N 54°10' E 009°26'5 5.5
2014-Sep-29 22:33N 54°12' E 009°33'7 6.7
2014-Sep-29 21:33N 54°17' E 009°40'8 7.7
2014-Sep-29 20:33N 54°22' E 009°50'8 7.6
2014-Sep-29 19:33N 54°22' E 010°03'3 3.0
2014-Sep-29 18:33N 54°22' E 010°08'2 2.2
2014-Sep-29 17:33N 54°23' E 010°12'1010.3
2014-Sep-29 16:33N 54°31' E 010°23'1510.3
2014-Sep-29 15:07N 54°35' E 010°47'610.0
2014-Sep-29 14:33N 54°35' E 010°57'9 9.3
2014-Sep-29 13:34N 54°35' E 011°13'10 9.5
2014-Sep-29 12:33N 54°31' E 011°28'9 9.5
2014-Sep-29 11:33N 54°27' E 011°43'10 9.8
2014-Sep-29 10:33N 54°26' E 011°60'10 9.7
2014-Sep-29 09:34N 54°31' E 012°14'9 9.1
2014-Sep-29 08:33N 54°36' E 012°27'9 9.5
2014-Sep-29 07:33N 54°40' E 012°42'1010.2
2014-Sep-29 06:34N 54°41' E 012°60'10 9.8
2014-Sep-29 05:32N 54°42' E 013°17'9 9.6
2014-Sep-29 04:34N 54°42' E 013°33'1010.2
2014-Sep-29 03:33N 54°34' E 013°45'1010.0
2014-Sep-29 02:33N 54°26' E 013°54'1010.1
2014-Sep-29 01:33N 54°17' E 014°02'1410.0
2014-Sep-29 00:13N 54°04' E 014°11'6 9.8
2014-Sep-28 23:33N 53°59' E 014°16'7 7.5
2014-Sep-28 22:33N 53°51' E 014°17'10 9.5
2014-Sep-28 21:32N 53°43' E 014°27'1010.0
2014-Sep-28 20:33N 53°35' E 014°36'8 8.5
2014-Sep-28 19:33N 53°27' E 014°36'3 2.6
2014-Sep-28 18:33N 53°24' E 014°37'0 0.0
2014-Sep-28 17:33N 53°24' E 014°37'0 0.0
2014-Sep-28 16:33N 53°24' E 014°37'0 0.0
2014-Sep-28 15:33N 53°24' E 014°37'0 0.0
2014-Sep-28 14:33N 53°24' E 014°37'0 0.0
2014-Sep-28 13:33N 53°24' E 014°37'0 0.0
2014-Sep-28 12:33N 53°24' E 014°37'0 0.0
2014-Sep-28 11:33N 53°24' E 014°37'0 0.0
2014-Sep-28 10:33N 53°24' E 014°37'0 0.0
2014-Sep-28 09:33N 53°24' E 014°37'0 0.0
2014-Sep-28 08:33N 53°24' E 014°37'0 0.0
2014-Sep-28 07:33N 53°24' E 014°37'0 0.0
2014-Sep-28 06:33N 53°24' E 014°37'0 0.0
2014-Sep-28 05:33N 53°24' E 014°37'0 0.0
2014-Sep-28 04:33N 53°24' E 014°37'0 0.0
2014-Sep-28 03:33N 53°24' E 014°37'0 0.0
2014-Sep-28 02:33N 53°24' E 014°37'0 0.0
2014-Sep-28 01:33N 53°24' E 014°37'0 0.0
2014-Sep-28 00:33N 53°24' E 014°37'0 0.0
2014-Sep-27 23:33N 53°24' E 014°37'0 0.0
2014-Sep-27 22:33N 53°24' E 014°37'0 0.0
2014-Sep-27 21:33N 53°24' E 014°37'0 0.0
2014-Sep-27 20:33N 53°24' E 014°37'0 0.0
2014-Sep-27 19:33N 53°24' E 014°37'0 0.0
2014-Sep-27 18:33N 53°24' E 014°37'0 0.0
2014-Sep-27 17:33N 53°24' E 014°37'0 0.0
2014-Sep-27 16:34N 53°24' E 014°37'0 0.0
2014-Sep-27 15:33N 53°24' E 014°37'0 0.0
2014-Sep-27 14:33N 53°24' E 014°37'0 0.0
2014-Sep-27 13:33N 53°24' E 014°37'0 0.0
2014-Sep-27 12:33N 53°24' E 014°37'0 0.0
2014-Sep-27 11:33N 53°24' E 014°37'0 0.0
2014-Sep-27 10:33N 53°24' E 014°37'0 0.0
2014-Sep-27 09:33N 53°24' E 014°37'0 0.0
2014-Sep-27 08:33N 53°24' E 014°37'0 0.0
2014-Sep-27 07:34N 53°24' E 014°37'0 0.0
2014-Sep-27 06:33N 53°24' E 014°37'0 0.0
2014-Sep-27 05:33N 53°24' E 014°37'0 0.0
2014-Sep-27 04:33N 53°24' E 014°37'1 0.6
2014-Sep-27 03:33N 53°25' E 014°37'7 6.6
2014-Sep-27 02:33N 53°31' E 014°38'8 8.3
2014-Sep-27 01:33N 53°39' E 014°33'1111.3
2014-Sep-27 00:33N 53°48' E 014°21'8 7.6
2014-Sep-26 23:33N 53°55' E 014°17'5 4.8
2014-Sep-26 22:34N 53°60' E 014°14'5 5.4
2014-Sep-26 21:33N 54°05' E 014°11'8 7.6
2014-Sep-26 20:34N 54°11' E 014°05'1111.4
2014-Sep-26 19:34N 54°22' E 013°56'1111.4
2014-Sep-26 18:33N 54°32' E 013°47'1111.3
2014-Sep-26 17:33N 54°40' E 013°35'1111.2
2014-Sep-26 16:33N 54°42' E 013°15'1212.1
2014-Sep-26 15:34N 54°41' E 012°54'1211.7
2014-Sep-26 14:33N 54°38' E 012°35'1212.1
2014-Sep-26 13:33N 54°31' E 012°17'1110.9
2014-Sep-26 12:31N 54°25' E 012°01'1111.9
2014-Sep-26 11:34N 54°26' E 011°42'1312.6
2014-Sep-26 10:33N 54°31' E 011°22'1212.0
2014-Sep-26 09:33N 54°34' E 011°02'1211.8
2014-Sep-26 08:32N 54°33' E 010°42'1111.2
2014-Sep-26 07:33N 54°30' E 010°23'1110.7
2014-Sep-26 06:34N 54°23' E 010°11'2 2.1
2014-Sep-26 05:33N 54°22' E 010°08'8 7.9
2014-Sep-26 04:33N 54°21' E 009°54'7 7.2
2014-Sep-26 03:32N 54°18' E 009°42'5 4.6
2014-Sep-26 02:25N 54°14' E 009°37'25 8.0
2014-Sep-25 23:17N 53°54' E 009°10'1 1.4
2014-Sep-25 22:32N 53°54' E 009°09'2 1.6
2014-Sep-25 21:27N 53°53' E 009°06'2 2.0
2014-Sep-25 20:33N 53°52' E 009°04'8 8.5
2014-Sep-25 19:33N 53°50' E 008°50'8 7.7
2014-Sep-25 18:33N 53°55' E 008°40'8 8.4
2014-Sep-25 17:33N 53°59' E 008°27'1110.6
2014-Sep-25 16:34N 53°59' E 008°09'1010.3
2014-Sep-25 15:33N 53°57' E 007°51'6 5.4
2014-Sep-25 14:32N 53°51' E 007°48'1010.1
2014-Sep-25 13:33N 53°47' E 008°02'1111.3
2014-Sep-25 12:33N 53°36' E 008°10'5 4.7
2014-Sep-25 11:33N 53°32' E 008°10'0 0.4
2014-Sep-25 10:33N 53°32' E 008°09'0 0.0
2014-Sep-25 09:24N 53°32' E 008°09'0 0.0
2014-Sep-25 08:34N 53°32' E 008°09'0 0.0
2014-Sep-25 07:34N 53°32' E 008°09'0 0.0
2014-Sep-25 06:33N 53°32' E 008°09'0 0.0
2014-Sep-25 05:33N 53°32' E 008°09'0 0.0
2014-Sep-25 04:33N 53°32' E 008°09'0 0.0
2014-Sep-25 03:33N 53°32' E 008°09'0 0.0
2014-Sep-25 02:33N 53°32' E 008°09'0 0.0
2014-Sep-25 01:33N 53°32' E 008°09'0 0.0
2014-Sep-24 22:30N 53°32' E 008°09'0 0.0
2014-Sep-24 21:33N 53°32' E 008°09'0 0.0
2014-Sep-24 20:33N 53°32' E 008°09'0 0.0
2014-Sep-24 19:30N 53°32' E 008°09'0 0.0
2014-Sep-24 16:30N 53°32' E 008°09'0 0.0
2014-Sep-24 14:24N 53°32' E 008°09'0 0.0
2014-Sep-24 13:12N 53°32' E 008°09'0 0.0
2014-Sep-24 12:18N 53°32' E 008°09'0 0.0
2014-Sep-24 11:33N 53°32' E 008°09'0 0.0
2014-Sep-24 10:33N 53°32' E 008°09'0 0.0
2014-Sep-24 09:30N 53°32' E 008°09'0 0.0
2014-Sep-24 08:33N 53°32' E 008°09'0 0.0
2014-Sep-24 07:33N 53°32' E 008°09'0 0.0
2014-Sep-24 06:33N 53°32' E 008°09'0 0.0
2014-Sep-24 05:30N 53°32' E 008°09'0 0.0
2014-Sep-24 04:30N 53°32' E 008°09'0 0.4
2014-Sep-24 03:33N 53°32' E 008°10'3 2.6
2014-Sep-24 02:33N 53°34' E 008°10'7 5.7
2014-Sep-24 01:23N 53°40' E 008°06'7 8.4
2014-Sep-24 00:33N 53°47' E 008°02'6710.5
2014-Sep-23 18:10N 53°42' E 006°09'711.6
2014-Sep-23 17:33N 53°39' E 005°57'1111.5
2014-Sep-23 16:33N 53°35' E 005°39'1111.3
2014-Sep-23 15:33N 53°32' E 005°21'1110.7
2014-Sep-23 14:33N 53°29' E 005°04'1010.0
2014-Sep-23 13:33N 53°25' E 004°48'32 9.4
2014-Sep-23 10:11N 52°58' E 004°20'6 9.1
2014-Sep-23 09:33N 52°53' E 004°16'9 9.2
2014-Sep-23 08:33N 52°45' E 004°09'9 9.1
2014-Sep-23 07:33N 52°37' E 004°01'30 9.8
2014-Sep-23 04:31N 52°13' E 003°32'39 9.6
2014-Sep-23 00:31N 51°35' E 003°24'10 9.9
2014-Sep-22 23:33N 51°27' E 003°33'7 6.7
2014-Sep-22 22:34N 51°24' E 003°43'6 6.0
2014-Sep-22 21:33N 51°20' E 003°49'1 1.5
2014-Sep-22 20:33N 51°18' E 003°50'2 1.9
2014-Sep-22 19:28N 51°16' E 003°51'0 0.0
2014-Sep-22 18:28N 51°16' E 003°51'0 0.0
2014-Sep-22 17:28N 51°16' E 003°51'0 0.0
2014-Sep-22 16:32N 51°16' E 003°51'0 0.0
2014-Sep-22 15:28N 51°16' E 003°51'0 0.0
2014-Sep-22 11:33N 51°16' E 003°51'3 2.8
2014-Sep-22 10:31N 51°19' E 003°49'0 0.0
2014-Sep-22 09:31N 51°19' E 003°49'0 0.0
2014-Sep-22 08:31N 51°19' E 003°49'0 0.0
2014-Sep-22 07:31N 51°19' E 003°49'0 0.0
2014-Sep-22 06:31N 51°19' E 003°49'0 0.0
2014-Sep-22 05:31N 51°19' E 003°49'0 0.0
2014-Sep-22 04:28N 51°19' E 003°49'0 0.0
2014-Sep-22 03:31N 51°19' E 003°49'0 0.0
2014-Sep-22 02:28N 51°19' E 003°49'0 0.0
2014-Sep-22 01:31N 51°19' E 003°49'0 0.0
2014-Sep-22 00:31N 51°19' E 003°49'0 0.0
2014-Sep-21 23:31N 51°19' E 003°49'0 0.0
2014-Sep-21 22:31N 51°19' E 003°49'0 0.0
2014-Sep-21 21:31N 51°19' E 003°49'0 0.0
2014-Sep-21 20:31N 51°19' E 003°49'0 0.0
2014-Sep-21 19:31N 51°19' E 003°49'0 0.0
2014-Sep-21 18:31N 51°19' E 003°49'0 0.0
2014-Sep-21 17:31N 51°19' E 003°49'0 0.0
2014-Sep-21 16:28N 51°19' E 003°49'0 0.0
2014-Sep-21 15:31N 51°19' E 003°49'0 0.0
2014-Sep-21 14:31N 51°19' E 003°49'0 0.0
2014-Sep-21 13:28N 51°19' E 003°49'0 0.0
2014-Sep-21 12:31N 51°19' E 003°49'0 0.0
2014-Sep-21 11:31N 51°19' E 003°49'0 0.0
2014-Sep-21 10:31N 51°19' E 003°49'0 0.0
2014-Sep-21 09:28N 51°19' E 003°49'0 0.0
2014-Sep-21 08:31N 51°19' E 003°49'0 0.0
2014-Sep-21 07:31N 51°19' E 003°49'0 0.0
2014-Sep-21 06:28N 51°19' E 003°49'0 0.0
2014-Sep-21 05:31N 51°19' E 003°49'0 0.0
2014-Sep-21 04:31N 51°19' E 003°49'0 0.0
2014-Sep-21 03:28N 51°19' E 003°49'0 0.0
2014-Sep-21 02:28N 51°19' E 003°49'0 0.0
2014-Sep-21 01:28N 51°19' E 003°49'0 0.0
2014-Sep-21 00:28N 51°19' E 003°49'0 0.0
2014-Sep-20 23:28N 51°19' E 003°49'0 0.0
2014-Sep-20 22:31N 51°19' E 003°49'0 0.0
2014-Sep-20 21:28N 51°19' E 003°49'0 0.0
2014-Sep-20 20:31N 51°19' E 003°49'0 0.0
2014-Sep-20 19:31N 51°19' E 003°49'0 0.0
2014-Sep-20 18:31N 51°19' E 003°49'0 0.0
2014-Sep-20 17:31N 51°19' E 003°49'0 0.0
2014-Sep-20 16:31N 51°19' E 003°49'0 0.0
2014-Sep-20 15:31N 51°19' E 003°49'0 0.0
2014-Sep-20 14:28N 51°19' E 003°49'0 0.0
2014-Sep-20 13:31N 51°19' E 003°49'0 0.0
2014-Sep-20 12:31N 51°19' E 003°49'0 0.0
2014-Sep-20 11:22N 51°19' E 003°49'0 0.0
2014-Sep-20 10:28N 51°19' E 003°49'0 0.0
2014-Sep-20 09:31N 51°19' E 003°49'0 0.0
2014-Sep-20 08:31N 51°19' E 003°49'  
Track history (hours):
 
Tides and Currents Weather Stations Pressure Air Temp Water Temp Dewpoint Dewpoint Depression Visibility Wind Speed Wind Dir Waves Ship Positions

Cfl Racer

Last reported at 2014-Sep-30 08:24 UTC. Time now 2014-Sep-30 13:52 UTC.
Position N 53°60' E 007°29'.

Length 83 m; draft 4.6 m.

Type: Cargo ship. MMSI: 306762000.

Date/timePositionNaut miles runAvg speedWind from/ knotsBaromVisibWave heightAir tempDewpointWater temp
2014-Sep-30 08:24N 53°60' E 007°29'911.2
2014-Sep-30 07:33N 54°01' E 007°45'1211.7
2014-Sep-30 06:33N 54°01' E 008°05'1312.7
2014-Sep-30 05:34N 53°59' E 008°26'1111.3
2014-Sep-30 04:34N 53°53' E 008°42'9 8.8
2014-Sep-30 03:33N 53°51' E 008°57'26 6.2
2014-Sep-29 23:26N 54°10' E 009°26'5 5.5
2014-Sep-29 22:33N 54°12' E 009°33'7 6.7
2014-Sep-29 21:33N 54°17' E 009°40'8 7.7
2014-Sep-29 20:33N 54°22' E 009°50'8 7.6
2014-Sep-29 19:33N 54°22' E 010°03'3 3.0
2014-Sep-29 18:33N 54°22' E 010°08'2 2.2
2014-Sep-29 17:33N 54°23' E 010°12'1010.3
2014-Sep-29 16:33N 54°31' E 010°23'1510.3
2014-Sep-29 15:07N 54°35' E 010°47'610.0
2014-Sep-29 14:33N 54°35' E 010°57'9 9.3
2014-Sep-29 13:34N 54°35' E 011°13'10 9.5
2014-Sep-29 12:33N 54°31' E 011°28'9 9.5
2014-Sep-29 11:33N 54°27' E 011°43'10 9.8
2014-Sep-29 10:33N 54°26' E 011°60'10 9.7
2014-Sep-29 09:34N 54°31' E 012°14'9 9.1
2014-Sep-29 08:33N 54°36' E 012°27'9 9.5
2014-Sep-29 07:33N 54°40' E 012°42'1010.2
2014-Sep-29 06:34N 54°41' E 012°60'10 9.8
2014-Sep-29 05:32N 54°42' E 013°17'9 9.6
2014-Sep-29 04:34N 54°42' E 013°33'1010.2
2014-Sep-29 03:33N 54°34' E 013°45'1010.0
2014-Sep-29 02:33N 54°26' E 013°54'1010.1
2014-Sep-29 01:33N 54°17' E 014°02'1410.0
2014-Sep-29 00:13N 54°04' E 014°11'6 9.8
2014-Sep-28 23:33N 53°59' E 014°16'7 7.5
2014-Sep-28 22:33N 53°51' E 014°17'10 9.5
2014-Sep-28 21:32N 53°43' E 014°27'1010.0
2014-Sep-28 20:33N 53°35' E 014°36'8 8.5
2014-Sep-28 19:33N 53°27' E 014°36'3 2.6
2014-Sep-28 18:33N 53°24' E 014°37'0 0.0
2014-Sep-28 17:33N 53°24' E 014°37'0 0.0
2014-Sep-28 16:33N 53°24' E 014°37'0 0.0
2014-Sep-28 15:33N 53°24' E 014°37'0 0.0
2014-Sep-28 14:33N 53°24' E 014°37'0 0.0
2014-Sep-28 13:33N 53°24' E 014°37'0 0.0
2014-Sep-28 12:33N 53°24' E 014°37'0 0.0
2014-Sep-28 11:33N 53°24' E 014°37'0 0.0
2014-Sep-28 10:33N 53°24' E 014°37'0 0.0
2014-Sep-28 09:33N 53°24' E 014°37'0 0.0
2014-Sep-28 08:33N 53°24' E 014°37'0 0.0
2014-Sep-28 07:33N 53°24' E 014°37'0 0.0
2014-Sep-28 06:33N 53°24' E 014°37'0 0.0
2014-Sep-28 05:33N 53°24' E 014°37'0 0.0
2014-Sep-28 04:33N 53°24' E 014°37'0 0.0
2014-Sep-28 03:33N 53°24' E 014°37'0 0.0
2014-Sep-28 02:33N 53°24' E 014°37'0 0.0
2014-Sep-28 01:33N 53°24' E 014°37'0 0.0
2014-Sep-28 00:33N 53°24' E 014°37'0 0.0
2014-Sep-27 23:33N 53°24' E 014°37'0 0.0
2014-Sep-27 22:33N 53°24' E 014°37'0 0.0
2014-Sep-27 21:33N 53°24' E 014°37'0 0.0
2014-Sep-27 20:33N 53°24' E 014°37'0 0.0
2014-Sep-27 19:33N 53°24' E 014°37'0 0.0
2014-Sep-27 18:33N 53°24' E 014°37'0 0.0
2014-Sep-27 17:33N 53°24' E 014°37'0 0.0
2014-Sep-27 16:34N 53°24' E 014°37'0 0.0
2014-Sep-27 15:33N 53°24' E 014°37'0 0.0
2014-Sep-27 14:33N 53°24' E 014°37'0 0.0
2014-Sep-27 13:33N 53°24' E 014°37'0 0.0
2014-Sep-27 12:33N 53°24' E 014°37'0 0.0
2014-Sep-27 11:33N 53°24' E 014°37'0 0.0
2014-Sep-27 10:33N 53°24' E 014°37'0 0.0
2014-Sep-27 09:33N 53°24' E 014°37'0 0.0
2014-Sep-27 08:33N 53°24' E 014°37'0 0.0
2014-Sep-27 07:34N 53°24' E 014°37'0 0.0
2014-Sep-27 06:33N 53°24' E 014°37'0 0.0
2014-Sep-27 05:33N 53°24' E 014°37'0 0.0
2014-Sep-27 04:33N 53°24' E 014°37'1 0.6
2014-Sep-27 03:33N 53°25' E 014°37'7 6.6
2014-Sep-27 02:33N 53°31' E 014°38'8 8.3
2014-Sep-27 01:33N 53°39' E 014°33'1111.3
2014-Sep-27 00:33N 53°48' E 014°21'8 7.6
2014-Sep-26 23:33N 53°55' E 014°17'5 4.8
2014-Sep-26 22:34N 53°60' E 014°14'5 5.4
2014-Sep-26 21:33N 54°05' E 014°11'8 7.6
2014-Sep-26 20:34N 54°11' E 014°05'1111.4
2014-Sep-26 19:34N 54°22' E 013°56'1111.4
2014-Sep-26 18:33N 54°32' E 013°47'1111.3
2014-Sep-26 17:33N 54°40' E 013°35'1111.2
2014-Sep-26 16:33N 54°42' E 013°15'1212.1
2014-Sep-26 15:34N 54°41' E 012°54'1211.7
2014-Sep-26 14:33N 54°38' E 012°35'1212.1
2014-Sep-26 13:33N 54°31' E 012°17'1110.9
2014-Sep-26 12:31N 54°25' E 012°01'1111.9
2014-Sep-26 11:34N 54°26' E 011°42'1312.6
2014-Sep-26 10:33N 54°31' E 011°22'1212.0
2014-Sep-26 09:33N 54°34' E 011°02'1211.8
2014-Sep-26 08:32N 54°33' E 010°42'1111.2
2014-Sep-26 07:33N 54°30' E 010°23'1110.7
2014-Sep-26 06:34N 54°23' E 010°11'2 2.1
2014-Sep-26 05:33N 54°22' E 010°08'8 7.9
2014-Sep-26 04:33N 54°21' E 009°54'7 7.2
2014-Sep-26 03:32N 54°18' E 009°42'5 4.6
2014-Sep-26 02:25N 54°14' E 009°37'25 8.0
2014-Sep-25 23:17N 53°54' E 009°10'1 1.4
2014-Sep-25 22:32N 53°54' E 009°09'2 1.6
2014-Sep-25 21:27N 53°53' E 009°06'2 2.0
2014-Sep-25 20:33N 53°52' E 009°04'8 8.5
2014-Sep-25 19:33N 53°50' E 008°50'8 7.7
2014-Sep-25 18:33N 53°55' E 008°40'8 8.4
2014-Sep-25 17:33N 53°59' E 008°27'1110.6
2014-Sep-25 16:34N 53°59' E 008°09'1010.3
2014-Sep-25 15:33N 53°57' E 007°51'6 5.4
2014-Sep-25 14:32N 53°51' E 007°48'1010.1
2014-Sep-25 13:33N 53°47' E 008°02'1111.3
2014-Sep-25 12:33N 53°36' E 008°10'5 4.7
2014-Sep-25 11:33N 53°32' E 008°10'0 0.4
2014-Sep-25 10:33N 53°32' E 008°09'0 0.0
2014-Sep-25 09:24N 53°32' E 008°09'0 0.0
2014-Sep-25 08:34N 53°32' E 008°09'0 0.0
2014-Sep-25 07:34N 53°32' E 008°09'0 0.0
2014-Sep-25 06:33N 53°32' E 008°09'0 0.0
2014-Sep-25 05:33N 53°32' E 008°09'0 0.0
2014-Sep-25 04:33N 53°32' E 008°09'0 0.0
2014-Sep-25 03:33N 53°32' E 008°09'0 0.0
2014-Sep-25 02:33N 53°32' E 008°09'0 0.0
2014-Sep-25 01:33N 53°32' E 008°09'0 0.0
2014-Sep-24 22:30N 53°32' E 008°09'0 0.0
2014-Sep-24 21:33N 53°32' E 008°09'0 0.0
2014-Sep-24 20:33N 53°32' E 008°09'0 0.0
2014-Sep-24 19:30N 53°32' E 008°09'0 0.0
2014-Sep-24 16:30N 53°32' E 008°09'0 0.0
2014-Sep-24 14:24N 53°32' E 008°09'0 0.0
2014-Sep-24 13:12N 53°32' E 008°09'0 0.0
2014-Sep-24 12:18N 53°32' E 008°09'0 0.0
2014-Sep-24 11:33N 53°32' E 008°09'0 0.0
2014-Sep-24 10:33N 53°32' E 008°09'0 0.0
2014-Sep-24 09:30N 53°32' E 008°09'0 0.0
2014-Sep-24 08:33N 53°32' E 008°09'0 0.0
2014-Sep-24 07:33N 53°32' E 008°09'0 0.0
2014-Sep-24 06:33N 53°32' E 008°09'0 0.0
2014-Sep-24 05:30N 53°32' E 008°09'0 0.0
2014-Sep-24 04:30N 53°32' E 008°09'0 0.4
2014-Sep-24 03:33N 53°32' E 008°10'3 2.6
2014-Sep-24 02:33N 53°34' E 008°10'7 5.7
2014-Sep-24 01:23N 53°40' E 008°06'7 8.4
2014-Sep-24 00:33N 53°47' E 008°02'6710.5
2014-Sep-23 18:10N 53°42' E 006°09'711.6
2014-Sep-23 17:33N 53°39' E 005°57'1111.5
2014-Sep-23 16:33N 53°35' E 005°39'1111.3
2014-Sep-23 15:33N 53°32' E 005°21'1110.7
2014-Sep-23 14:33N 53°29' E 005°04'1010.0
2014-Sep-23 13:33N 53°25' E 004°48'32 9.4
2014-Sep-23 10:11N 52°58' E 004°20'6 9.1
2014-Sep-23 09:33N 52°53' E 004°16'9 9.2
2014-Sep-23 08:33N 52°45' E 004°09'9 9.1
2014-Sep-23 07:33N 52°37' E 004°01'30 9.8
2014-Sep-23 04:31N 52°13' E 003°32'39 9.6
2014-Sep-23 00:31N 51°35' E 003°24'10 9.9
2014-Sep-22 23:33N 51°27' E 003°33'7 6.7
2014-Sep-22 22:34N 51°24' E 003°43'6 6.0
2014-Sep-22 21:33N 51°20' E 003°49'1 1.5
2014-Sep-22 20:33N 51°18' E 003°50'2 1.9
2014-Sep-22 19:28N 51°16' E 003°51'0 0.0
2014-Sep-22 18:28N 51°16' E 003°51'0 0.0
2014-Sep-22 17:28N 51°16' E 003°51'0 0.0
2014-Sep-22 16:32N 51°16' E 003°51'0 0.0
2014-Sep-22 15:28N 51°16' E 003°51'0 0.0
2014-Sep-22 11:33N 51°16' E 003°51'3 2.8
2014-Sep-22 10:31N 51°19' E 003°49'0 0.0
2014-Sep-22 09:31N 51°19' E 003°49'0 0.0
2014-Sep-22 08:31N 51°19' E 003°49'0 0.0
2014-Sep-22 07:31N 51°19' E 003°49'0 0.0
2014-Sep-22 06:31N 51°19' E 003°49'0 0.0
2014-Sep-22 05:31N 51°19' E 003°49'0 0.0
2014-Sep-22 04:28N 51°19' E 003°49'0 0.0
2014-Sep-22 03:31N 51°19' E 003°49'0 0.0
2014-Sep-22 02:28N 51°19' E 003°49'0 0.0
2014-Sep-22 01:31N 51°19' E 003°49'0 0.0
2014-Sep-22 00:31N 51°19' E 003°49'0 0.0
2014-Sep-21 23:31N 51°19' E 003°49'0 0.0
2014-Sep-21 22:31N 51°19' E 003°49'0 0.0
2014-Sep-21 21:31N 51°19' E 003°49'0 0.0
2014-Sep-21 20:31N 51°19' E 003°49'0 0.0
2014-Sep-21 19:31N 51°19' E 003°49'0 0.0
2014-Sep-21 18:31N 51°19' E 003°49'0 0.0
2014-Sep-21 17:31N 51°19' E 003°49'0 0.0
2014-Sep-21 16:28N 51°19' E 003°49'0 0.0
2014-Sep-21 15:31N 51°19' E 003°49'0 0.0
2014-Sep-21 14:31N 51°19' E 003°49'0 0.0
2014-Sep-21 13:28N 51°19' E 003°49'0 0.0
2014-Sep-21 12:31N 51°19' E 003°49'0 0.0
2014-Sep-21 11:31N 51°19' E 003°49'0 0.0
2014-Sep-21 10:31N 51°19' E 003°49'0 0.0
2014-Sep-21 09:28N 51°19' E 003°49'0 0.0
2014-Sep-21 08:31N 51°19' E 003°49'0 0.0
2014-Sep-21 07:31N 51°19' E 003°49'0 0.0
2014-Sep-21 06:28N 51°19' E 003°49'0 0.0
2014-Sep-21 05:31N 51°19' E 003°49'0 0.0
2014-Sep-21 04:31N 51°19' E 003°49'0 0.0
2014-Sep-21 03:28N 51°19' E 003°49'0 0.0
2014-Sep-21 02:28N 51°19' E 003°49'0 0.0
2014-Sep-21 01:28N 51°19' E 003°49'0 0.0
2014-Sep-21 00:28N 51°19' E 003°49'0 0.0
2014-Sep-20 23:28N 51°19' E 003°49'0 0.0
2014-Sep-20 22:31N 51°19' E 003°49'0 0.0
2014-Sep-20 21:28N 51°19' E 003°49'0 0.0
2014-Sep-20 20:31N 51°19' E 003°49'0 0.0
2014-Sep-20 19:31N 51°19' E 003°49'0 0.0
2014-Sep-20 18:31N 51°19' E 003°49'0 0.0
2014-Sep-20 17:31N 51°19' E 003°49'0 0.0
2014-Sep-20 16:31N 51°19' E 003°49'0 0.0
2014-Sep-20 15:31N 51°19' E 003°49'0 0.0
2014-Sep-20 14:28N 51°19' E 003°49'0 0.0
2014-Sep-20 13:31N 51°19' E 003°49'0 0.0
2014-Sep-20 12:31N 51°19' E 003°49'0 0.0
2014-Sep-20 11:22N 51°19' E 003°49'0 0.0
2014-Sep-20 10:28N 51°19' E 003°49'0 0.0
2014-Sep-20 09:31N 51°19' E 003°49'0 0.0
2014-Sep-20 08:31N 51°19' E 003°49'  

Dump ship's entire track history